Terminal Aerodrome Forecast
Issued by NWS

Home | Current Version | Previous Version | Text Only | Print | Product List | Glossary On
Versions: 1 2 3 4 5 6 7 8 9 10 11 12 13 14 15 16 17 18 19 20 21 22 23 24 25 26 27 28 29 30 31 32 33 34 35
623
FTUS41 KBTV 130537
TAFPBG
TAF
KPBG 130537Z 1306/1406 18007KT P6SM VCSH BKN040
     FM130800 22008KT P6SM VCSH BKN045
     FM131000 30010KT P6SM BKN060
     FM131300 31015KT P6SM SCT070
     FM131900 30013G19KT P6SM BKN100
     FM140000 31009KT P6SM BKN060
     FM140300 32010KT P6SM SCT070=

USA.gov is the U.S. government's official web portal to all federal, state and local government web resources and services.